Time;durP1;ratioP1;P1;durP2;ratioP2;P2;SDS_P1;SDS_P2;PMS_P1;PMS_P2;Temp;Humidity;BMP_temperature;BMP_pressure;BME280_temperature;BME280_humidity;BME280_pressure;Samples;Min_cycle;Max_cycle;Signal;HPM_P1;HPM_P2
2021/03/09 00:01:36;;;;;;;127.87;65.40;;;6.50;99.90;;;;;;5065425;28;20189;-87
2021/03/09 00:04:02;;;;;;;126.67;67.57;;;6.50;99.90;;;;;;5069203;28;20558;-79
2021/03/09 00:06:28;;;;;;;133.40;68.33;;;6.50;99.90;;;;;;5085338;28;20209;-83
2021/03/09 00:08:54;;;;;;;133.37;68.13;;;6.50;99.90;;;;;;5086411;28;20193;-82
2021/03/09 00:11:21;;;;;;;127.70;65.93;;;6.60;99.90;;;;;;5084774;28;20201;-83
2021/03/09 00:13:48;;;;;;;133.13;66.57;;;6.60;99.90;;;;;;5085374;28;20545;-82
2021/03/09 00:16:14;;;;;;;127.17;65.53;;;6.60;99.90;;;;;;5085494;28;20243;-82
2021/03/09 00:18:40;;;;;;;123.53;65.97;;;6.60;99.90;;;;;;5087537;28;20221;-82
2021/03/09 00:21:06;;;;;;;128.70;65.00;;;6.60;99.90;;;;;;5073426;28;20233;-85
2021/03/09 00:23:32;;;;;;;119.40;63.63;;;6.70;99.90;;;;;;5067267;28;20212;-86
2021/03/09 00:25:59;;;;;;;136.23;64.30;;;6.70;99.90;;;;;;5066900;28;20193;-81
2021/03/09 00:28:26;;;;;;;122.77;62.30;;;6.70;99.90;;;;;;5066996;28;20625;-82
2021/03/09 00:30:52;;;;;;;117.20;59.43;;;6.70;99.90;;;;;;5071573;28;20196;-82
2021/03/09 00:33:19;;;;;;;114.80;59.83;;;6.70;99.90;;;;;;5070290;28;20217;-87
2021/03/09 00:35:45;;;;;;;118.73;61.67;;;6.70;99.90;;;;;;5070747;28;20198;-85
2021/03/09 00:38:11;;;;;;;119.80;59.60;;;6.70;99.90;;;;;;5070912;28;20236;-85
2021/03/09 00:40:38;;;;;;;114.33;56.97;;;6.70;99.90;;;;;;5069986;28;20254;-84
2021/03/09 00:43:04;;;;;;;107.90;56.93;;;6.60;99.90;;;;;;5070766;28;20639;-79
2021/03/09 00:45:31;;;;;;;102.70;54.73;;;6.60;99.90;;;;;;5069614;28;20266;-83
2021/03/09 00:47:58;;;;;;;116.87;58.30;;;6.60;99.90;;;;;;5070634;28;20613;-81
2021/03/09 00:50:24;;;;;;;119.60;57.93;;;6.60;99.90;;;;;;5068455;28;20201;-84
2021/03/09 00:52:50;;;;;;;124.13;64.40;;;6.60;99.90;;;;;;5074802;28;20216;-81
2021/03/09 00:55:17;;;;;;;107.97;56.27;;;6.70;99.90;;;;;;5084254;28;20272;-86
2021/03/09 00:57:44;;;;;;;112.17;62.27;;;6.70;99.90;;;;;;5084911;28;20221;-86
2021/03/09 01:00:11;;;;;;;129.07;67.60;;;6.70;99.90;;;;;;5087031;28;20204;-78
2021/03/09 01:02:38;;;;;;;127.97;65.80;;;6.70;99.90;;;;;;5066671;28;20575;-82
2021/03/09 01:05:05;;;;;;;104.33;55.93;;;6.70;99.90;;;;;;5067212;28;20208;-83
2021/03/09 01:07:31;;;;;;;100.73;55.67;;;6.70;99.90;;;;;;5065145;28;20887;-85
2021/03/09 01:09:57;;;;;;;100.57;53.20;;;6.80;99.90;;;;;;5064951;28;20213;-84
2021/03/09 01:12:24;;;;;;;78.43;45.60;;;6.80;99.90;;;;;;5065994;28;20707;-82
2021/03/09 01:14:50;;;;;;;82.43;46.73;;;6.80;99.90;;;;;;5066633;28;20205;-85
2021/03/09 01:17:16;;;;;;;85.93;47.90;;;6.90;99.90;;;;;;5085403;28;20301;-81
2021/03/09 01:19:43;;;;;;;69.93;42.03;;;6.90;99.90;;;;;;5084653;28;20233;-79
2021/03/09 01:22:09;;;;;;;68.33;42.20;;;6.90;99.90;;;;;;5084123;28;20265;-79
2021/03/09 01:24:36;;;;;;;65.67;40.07;;;6.90;99.90;;;;;;5065101;28;20602;-85
2021/03/09 01:27:02;;;;;;;63.70;37.40;;;7.00;99.90;;;;;;5065407;28;20202;-80
2021/03/09 01:29:28;;;;;;;60.93;36.87;;;7.00;99.90;;;;;;5064746;28;20205;-82
2021/03/09 01:31:54;;;;;;;66.07;38.03;;;7.00;99.90;;;;;;5064493;28;20206;-79
2021/03/09 01:34:21;;;;;;;63.03;37.23;;;6.90;99.90;;;;;;5063314;28;20201;-79
2021/03/09 01:36:48;;;;;;;65.13;38.77;;;6.90;99.90;;;;;;5068260;28;20266;-76
2021/03/09 01:39:14;;;;;;;55.63;35.00;;;6.90;99.90;;;;;;5084592;28;20220;-77
2021/03/09 01:41:41;;;;;;;58.40;34.57;;;6.90;99.90;;;;;;5065716;28;20216;-79
2021/03/09 01:44:07;;;;;;;51.33;32.30;;;7.00;99.90;;;;;;5063743;28;20890;-77
2021/03/09 01:46:34;;;;;;;49.10;31.33;;;6.90;99.90;;;;;;5063655;28;20216;-77
2021/03/09 01:49:00;;;;;;;49.87;31.17;;;6.90;99.90;;;;;;5064224;28;20201;-79
2021/03/09 01:51:27;;;;;;;55.93;32.93;;;6.90;99.90;;;;;;5062414;28;20278;-77
2021/03/09 01:53:54;;;;;;;53.43;31.70;;;6.90;99.90;;;;;;5063495;28;20209;-82
2021/03/09 01:56:20;;;;;;;54.27;33.20;;;6.90;99.90;;;;;;5066767;28;20209;-85
2021/03/09 01:58:49;;;;;;;53.80;32.60;;;6.90;99.90;;;;;;5068108;28;20225;-83
2021/03/09 02:01:16;;;;;;;53.07;31.43;;;6.90;99.90;;;;;;5071484;28;20211;-82
2021/03/09 02:03:42;;;;;;;51.83;30.40;;;7.00;99.90;;;;;;5088999;28;20258;-81
2021/03/09 02:06:10;;;;;;;51.00;30.53;;;7.00;99.90;;;;;;5089042;28;20208;-84
2021/03/09 02:08:36;;;;;;;46.33;29.77;;;7.00;99.90;;;;;;5089299;28;20196;-86
2021/03/09 02:11:11;;;;;;;50.20;30.73;;;7.00;99.90;;;;;;5071830;28;20472;-84
2021/03/09 02:13:48;;;;;;;48.47;28.07;;;6.90;99.90;;;;;;5069030;28;20226;-84
2021/03/09 02:16:21;;;;;;;48.97;28.83;;;6.90;99.90;;;;;;5068521;28;20788;-86
2021/03/09 02:18:56;;;;;;;52.77;30.20;;;6.90;99.90;;;;;;5069832;28;20217;-84
2021/03/09 02:21:58;;;;;;;47.33;28.83;;;7.00;99.90;;;;;;5068667;28;20233;-86
2021/03/09 02:24:49;;;;;;;46.43;26.43;;;7.00;99.90;;;;;;5067448;28;20201;-84
2021/03/09 02:27:29;;;;;;;39.43;25.57;;;7.00;99.90;;;;;;5067170;28;20217;-80
2021/03/09 02:30:08;;;;;;;44.97;27.77;;;7.10;99.90;;;;;;5067568;28;20292;-84
2021/03/09 02:32:40;;;;;;;44.07;28.00;;;7.10;99.90;;;;;;5066748;28;20212;-81
2021/03/09 02:35:11;;;;;;;42.93;28.40;;;7.10;99.90;;;;;;5047238;28;20198;-80
2021/03/09 02:37:39;;;;;;;44.63;27.13;;;7.10;99.90;;;;;;5044783;28;20316;-79
2021/03/09 02:40:11;;;;;;;47.03;27.87;;;7.20;99.90;;;;;;5046271;28;20202;-81
2021/03/09 02:42:48;;;;;;;50.70;29.13;;;7.20;99.90;;;;;;5054379;28;20204;-81
2021/03/09 02:45:18;;;;;;;45.67;28.90;;;7.20;99.90;;;;;;5086481;28;20208;-81
2021/03/09 02:47:47;;;;;;;49.93;29.07;;;7.20;99.90;;;;;;5085309;28;20220;-82
2021/03/09 02:50:16;;;;;;;44.97;29.40;;;7.20;99.90;;;;;;5083970;28;20226;-80
2021/03/09 02:52:46;;;;;;;46.87;27.40;;;7.20;99.90;;;;;;5065642;28;20208;-85
2021/03/09 02:55:15;;;;;;;45.97;27.70;;;7.20;99.90;;;;;;5070179;28;20215;-79
2021/03/09 02:57:44;;;;;;;41.37;28.73;;;7.20;99.90;;;;;;5085187;28;20251;-78
2021/03/09 03:00:12;;;;;;;45.10;28.03;;;7.20;99.90;;;;;;5086548;28;20205;-85
2021/03/09 03:02:40;;;;;;;49.77;30.03;;;7.20;99.90;;;;;;5067082;28;20271;-84
2021/03/09 03:05:09;;;;;;;49.20;29.87;;;7.20;99.90;;;;;;5067469;28;20251;-79
2021/03/09 03:07:37;;;;;;;52.03;30.93;;;7.10;99.90;;;;;;5079782;28;20725;-83
2021/03/09 03:10:05;;;;;;;47.17;30.33;;;7.10;99.90;;;;;;5081719;28;20217;-80
2021/03/09 03:12:33;;;;;;;51.87;33.17;;;7.10;99.90;;;;;;5066923;28;20205;-81
2021/03/09 03:15:01;;;;;;;53.43;31.70;;;7.10;99.90;;;;;;5066674;28;20212;-81
2021/03/09 03:17:29;;;;;;;46.97;27.60;;;7.10;99.90;;;;;;5064893;28;20232;-85
2021/03/09 03:19:58;;;;;;;51.43;30.40;;;7.10;99.90;;;;;;5071576;28;20651;-87
2021/03/09 03:22:26;;;;;;;46.37;28.23;;;7.20;99.90;;;;;;5088356;28;20467;-86
2021/03/09 03:24:53;;;;;;;54.70;30.53;;;7.10;99.90;;;;;;5082473;28;20217;-84
2021/03/09 03:27:20;;;;;;;46.37;29.73;;;7.20;99.90;;;;;;5068941;28;20315;-87
2021/03/09 03:29:46;;;;;;;55.50;31.37;;;7.20;99.90;;;;;;5076432;28;20214;-85
2021/03/09 03:32:13;;;;;;;51.27;28.53;;;7.10;99.90;;;;;;5088802;28;20602;-86
2021/03/09 03:34:40;;;;;;;52.07;29.03;;;7.10;99.90;;;;;;5088888;28;20196;-85
2021/03/09 03:37:07;;;;;;;49.97;29.30;;;7.10;99.90;;;;;;5067640;28;20254;-85
2021/03/09 03:39:35;;;;;;;55.77;28.83;;;7.10;99.90;;;;;;5068601;28;20213;-85
2021/03/09 03:42:01;;;;;;;57.33;28.40;;;7.10;99.90;;;;;;5068661;28;20205;-85
2021/03/09 03:44:28;;;;;;;50.37;25.17;;;7.10;99.90;;;;;;5067213;28;20212;-82
2021/03/09 03:46:54;;;;;;;52.20;26.53;;;7.10;99.90;;;;;;5067486;28;20205;-86
2021/03/09 03:49:20;;;;;;;45.30;23.90;;;7.10;99.90;;;;;;5067874;28;20197;-86
2021/03/09 03:51:52;;;;;;;57.93;26.80;;;7.00;99.90;;;;;;5067471;28;20209;-86
2021/03/09 03:54:30;;;;;;;49.80;23.83;;;7.10;99.90;;;;;;5065103;28;20197;-83
2021/03/09 03:57:01;;;;;;;43.00;22.17;;;7.00;99.90;;;;;;5066910;28;20219;-83
2021/03/09 03:59:32;;;;;;;38.73;20.03;;;7.00;99.90;;;;;;5067238;28;20707;-84
2021/03/09 04:02:01;;;;;;;32.30;17.20;;;7.00;99.90;;;;;;5066920;28;20212;-81
2021/03/09 04:04:28;;;;;;;25.20;11.00;;;7.00;99.90;;;;;;5068994;28;20201;-83
2021/03/09 04:06:55;;;;;;;17.33;7.43;;;7.10;99.90;;;;;;5069996;28;20204;-85
2021/03/09 04:09:24;;;;;;;12.10;4.23;;;7.00;99.90;;;;;;5086229;28;20462;-84
2021/03/09 04:11:52;;;;;;;11.07;4.13;;;7.00;99.90;;;;;;5069618;28;20201;-80
2021/03/09 04:14:19;;;;;;;10.00;4.53;;;6.90;99.90;;;;;;5069763;28;20206;-80
2021/03/09 04:16:48;;;;;;;11.93;3.40;;;6.90;99.90;;;;;;5069531;28;20224;-79
2021/03/09 04:19:16;;;;;;;10.97;2.93;;;6.90;99.90;;;;;;5069978;28;20221;-85
2021/03/09 04:21:44;;;;;;;4.73;2.50;;;6.90;99.90;;;;;;5086022;28;20212;-81
2021/03/09 04:24:12;;;;;;;16.90;3.67;;;6.80;99.90;;;;;;5084870;28;20605;-86
2021/03/09 04:26:41;;;;;;;9.30;2.40;;;6.70;99.90;;;;;;5071334;28;20206;-86
2021/03/09 04:29:09;;;;;;;7.63;2.10;;;6.70;99.90;;;;;;5069205;28;20205;-80
2021/03/09 04:31:36;;;;;;;10.23;1.73;;;6.70;99.90;;;;;;5071233;28;20200;-86
2021/03/09 04:34:03;;;;;;;5.80;1.87;;;6.70;99.90;;;;;;5071894;28;20201;-83
2021/03/09 04:36:30;;;;;;;6.63;2.13;;;6.60;99.90;;;;;;5079033;28;20297;-84
2021/03/09 04:38:58;;;;;;;9.07;2.50;;;6.60;99.90;;;;;;5073574;28;20224;-85
2021/03/09 04:41:24;;;;;;;7.93;1.60;;;6.60;99.90;;;;;;5090619;28;20854;-86
2021/03/09 04:43:51;;;;;;;6.07;2.00;;;6.50;99.90;;;;;;5090964;28;20208;-83
2021/03/09 04:46:20;;;;;;;8.50;2.23;;;6.50;99.90;;;;;;5074120;28;20902;-84
2021/03/09 04:48:46;;;;;;;6.37;2.07;;;6.50;99.90;;;;;;5070722;28;20223;-85
2021/03/09 04:51:16;;;;;;;8.87;2.30;;;6.50;99.90;;;;;;5070372;28;20208;-84
2021/03/09 04:53:42;;;;;;;4.40;2.60;;;6.50;99.90;;;;;;5069669;28;20217;-80
2021/03/09 04:56:09;;;;;;;6.47;2.63;;;6.60;99.90;;;;;;5069264;28;20205;-77
2021/03/09 04:58:36;;;;;;;9.43;2.87;;;6.50;99.90;;;;;;5070786;28;20217;-81
2021/03/09 05:01:04;;;;;;;8.27;2.90;;;6.50;99.90;;;;;;5070899;28;20205;-83
2021/03/09 05:03:31;;;;;;;8.47;2.57;;;6.50;99.90;;;;;;5053845;28;20209;-82
2021/03/09 05:05:58;;;;;;;8.90;2.70;;;6.50;99.90;;;;;;5049851;28;20206;-81
2021/03/09 05:08:25;;;;;;;9.20;2.60;;;6.50;99.90;;;;;;5050838;28;20200;-82
2021/03/09 05:10:53;;;;;;;6.80;1.87;;;6.50;99.90;;;;;;5067706;28;20193;-80
2021/03/09 05:13:20;;;;;;;7.60;2.47;;;6.50;99.90;;;;;;5067669;28;20613;-81
2021/03/09 05:15:46;;;;;;;12.47;1.80;;;6.50;99.90;;;;;;5067028;28;20904;-80
2021/03/09 05:18:14;;;;;;;3.57;1.60;;;6.50;99.90;;;;;;5068497;28;20225;-83
2021/03/09 05:20:41;;;;;;;6.83;1.60;;;6.50;99.90;;;;;;5067041;28;20225;-82
2021/03/09 05:23:07;;;;;;;5.17;1.43;;;6.50;99.90;;;;;;5076150;28;20875;-84
2021/03/09 05:25:33;;;;;;;5.33;1.27;;;6.50;99.90;;;;;;5088832;28;20204;-80
2021/03/09 05:28:00;;;;;;;6.37;1.87;;;6.50;99.90;;;;;;5072336;28;20660;-82
2021/03/09 05:30:26;;;;;;;5.33;2.00;;;6.50;99.90;;;;;;5089341;28;20196;-79
2021/03/09 05:32:53;;;;;;;4.10;2.20;;;6.50;99.90;;;;;;5087227;28;20469;-84
2021/03/09 05:35:20;;;;;;;7.80;1.20;;;6.50;99.90;;;;;;5087292;28;20201;-83
2021/03/09 05:37:47;;;;;;;7.23;1.80;;;6.50;99.90;;;;;;5073897;28;20232;-81
2021/03/09 05:40:15;;;;;;;7.03;1.63;;;6.50;99.90;;;;;;5068507;28;20538;-81
2021/03/09 05:42:41;;;;;;;4.83;1.47;;;6.50;99.90;;;;;;5087229;28;20185;-82
2021/03/09 05:45:08;;;;;;;6.00;1.20;;;6.50;99.90;;;;;;5084075;28;20204;-80
2021/03/09 05:47:35;;;;;;;5.83;1.20;;;6.50;99.90;;;;;;5065514;28;20197;-79
2021/03/09 05:50:01;;;;;;;6.10;1.43;;;6.50;99.90;;;;;;5063514;28;20198;-79
2021/03/09 05:52:32;;;;;;;5.00;1.33;;;6.50;99.90;;;;;;5082241;28;20204;-84
2021/03/09 05:54:58;;;;;;;6.03;1.00;;;6.50;99.90;;;;;;5090053;28;20456;-82
2021/03/09 05:57:25;;;;;;;5.37;1.60;;;6.40;99.90;;;;;;5088165;28;20201;-83
2021/03/09 05:59:51;;;;;;;8.17;1.50;;;6.40;99.90;;;;;;5072620;28;20594;-78
2021/03/09 06:02:18;;;;;;;6.40;1.10;;;6.40;99.90;;;;;;5069724;28;20212;-84
2021/03/09 06:04:44;;;;;;;6.73;1.10;;;6.40;99.90;;;;;;5069619;28;20596;-82
2021/03/09 06:07:10;;;;;;;3.77;1.67;;;6.40;99.90;;;;;;5070666;28;20346;-83
2021/03/09 06:09:39;;;;;;;6.70;1.50;;;6.50;99.90;;;;;;5067243;28;20205;-83
2021/03/09 06:12:17;;;;;;;2.20;0.67;;;6.50;99.90;;;;;;5066158;28;20201;-83
2021/03/09 06:14:45;;;;;;;2.33;1.00;;;6.50;99.90;;;;;;5046505;28;20524;-83
2021/03/09 06:17:13;;;;;;;3.37;0.90;;;6.50;99.90;;;;;;5052371;28;20710;-83
2021/03/09 06:19:45;;;;;;;3.57;1.13;;;6.40;99.90;;;;;;5069002;28;20248;-83
2021/03/09 06:22:12;;;;;;;4.90;1.17;;;6.50;99.90;;;;;;5070448;28;20236;-84
2021/03/09 06:24:40;;;;;;;3.10;1.10;;;6.40;99.90;;;;;;5067383;28;20205;-84
2021/03/09 06:27:25;;;;;;;7.87;1.00;;;6.40;99.90;;;;;;5067774;28;20209;-84
2021/03/09 06:29:52;;;;;;;3.17;1.00;;;6.40;99.90;;;;;;5065646;28;20201;-83
2021/03/09 06:32:18;;;;;;;8.17;1.57;;;6.40;99.90;;;;;;5067302;28;20224;-80
2021/03/09 06:34:44;;;;;;;2.93;1.03;;;6.50;99.90;;;;;;5066821;28;20208;-84
2021/03/09 06:37:14;;;;;;;4.50;1.00;;;6.50;99.90;;;;;;5066590;28;20209;-83
2021/03/09 06:39:55;;;;;;;4.20;1.00;;;6.50;99.90;;;;;;5071176;28;20220;-83
2021/03/09 06:42:24;;;;;;;2.60;0.90;;;6.50;99.90;;;;;;5086940;28;20189;-81
2021/03/09 06:44:53;;;;;;;9.17;0.90;;;6.50;99.90;;;;;;5086566;28;20193;-84
2021/03/09 06:47:32;;;;;;;7.47;1.20;;;6.60;99.90;;;;;;5083821;28;20258;-83
2021/03/09 06:49:59;;;;;;;6.57;1.47;;;6.60;99.90;;;;;;5067197;28;20234;-83
2021/03/09 06:52:26;;;;;;;6.47;1.20;;;6.60;99.90;;;;;;5066140;28;20205;-81
2021/03/09 06:54:54;;;;;;;6.13;1.27;;;6.60;99.90;;;;;;5086440;28;20223;-81
2021/03/09 06:57:21;;;;;;;4.17;1.30;;;6.60;99.90;;;;;;5088010;28;20543;-81
2021/03/09 06:59:50;;;;;;;5.83;1.00;;;6.60;99.90;;;;;;5088428;28;20224;-82
2021/03/09 07:02:18;;;;;;;5.97;1.07;;;6.60;99.90;;;;;;5067569;28;20961;-82
2021/03/09 07:04:45;;;;;;;4.93;1.10;;;6.70;99.90;;;;;;5066225;28;20282;-83
2021/03/09 07:07:13;;;;;;;5.70;1.20;;;6.70;99.90;;;;;;5069216;28;20205;-83
2021/03/09 07:09:40;;;;;;;4.87;2.03;;;6.70;99.90;;;;;;5066882;28;20209;-81
2021/03/09 07:12:10;;;;;;;5.13;0.90;;;6.70;99.90;;;;;;5068163;28;20212;-83
2021/03/09 07:14:39;;;;;;;6.30;1.53;;;6.70;99.90;;;;;;5067622;28;20457;-83
2021/03/09 07:17:09;;;;;;;5.03;0.83;;;6.80;99.90;;;;;;5067213;28;20309;-81
2021/03/09 07:19:37;;;;;;;2.13;0.80;;;6.80;99.90;;;;;;5067404;28;20592;-81
2021/03/09 07:22:05;;;;;;;1.67;0.63;;;6.80;99.90;;;;;;5068647;28;20220;-82
2021/03/09 07:24:32;;;;;;;4.03;0.77;;;6.80;99.90;;;;;;5066303;28;20213;-82
2021/03/09 07:27:05;;;;;;;1.13;0.53;;;6.90;99.90;;;;;;5068527;28;20216;-81
2021/03/09 07:29:36;;;;;;;3.60;0.70;;;6.90;99.90;;;;;;5067322;28;20200;-81
2021/03/09 07:32:06;;;;;;;2.80;0.80;;;6.80;99.90;;;;;;5068264;28;20181;-82
2021/03/09 07:34:35;;;;;;;2.83;0.67;;;6.80;99.90;;;;;;5088860;28;20216;-81
2021/03/09 07:37:02;;;;;;;3.60;0.80;;;6.80;99.90;;;;;;5078704;28;20250;-82
2021/03/09 07:39:29;;;;;;;3.30;0.90;;;6.80;99.90;;;;;;5071058;28;20238;-82
2021/03/09 07:41:56;;;;;;;2.63;0.70;;;6.80;99.90;;;;;;5069328;28;20205;-82
2021/03/09 07:44:23;;;;;;;5.70;0.80;;;6.80;99.90;;;;;;5067534;28;20212;-83
2021/03/09 07:46:51;;;;;;;3.77;1.00;;;6.80;99.90;;;;;;5069727;28;20197;-81
2021/03/09 07:49:19;;;;;;;5.17;0.83;;;6.90;99.90;;;;;;5070340;28;20205;-79
2021/03/09 07:52:08;;;;;;;4.40;0.90;;;6.90;99.90;;;;;;5045638;28;20241;-80
2021/03/09 07:54:34;;;;;;;2.57;1.00;;;7.00;99.90;;;;;;5006167;28;20202;-78
2021/03/09 07:57:20;;;;;;;2.10;0.90;;;7.00;99.90;;;;;;5045159;28;20194;-79
2021/03/09 07:59:57;;;;;;;7.67;0.70;;;7.10;99.90;;;;;;5062758;28;20236;-78
2021/03/09 08:02:41;;;;;;;3.30;0.83;;;7.10;99.90;;;;;;5064323;28;20236;-78
2021/03/09 08:05:09;;;;;;;4.43;1.00;;;7.10;99.90;;;;;;5065342;28;20201;-79
2021/03/09 08:07:47;;;;;;;4.13;1.27;;;7.20;99.90;;;;;;5064374;28;20255;-78
2021/03/09 08:10:46;;;;;;;3.40;0.77;;;7.20;99.90;;;;;;5064931;28;20218;-79
2021/03/09 08:13:23;;;;;;;4.43;1.00;;;7.20;99.90;;;;;;5057233;28;20216;-77
2021/03/09 08:15:50;;;;;;;5.77;1.30;;;7.20;99.90;;;;;;5064947;28;20208;-79
2021/03/09 08:18:41;;;;;;;3.67;0.93;;;7.20;99.90;;;;;;5075923;28;20231;-79
2021/03/09 08:21:08;;;;;;;5.83;1.87;;;7.20;99.90;;;;;;5084836;28;20251;-79
2021/03/09 08:23:53;;;;;;;3.70;1.00;;;7.20;99.90;;;;;;5073489;28;20205;-79
2021/03/09 08:26:46;;;;;;;3.60;1.00;;;7.20;99.90;;;;;;5064328;28;20641;-79
2021/03/09 08:29:35;;;;;;;4.70;1.23;;;7.20;99.90;;;;;;5066539;28;20209;-80
2021/03/09 08:32:38;;;;;;;5.33;1.37;;;7.20;99.90;;;;;;5065449;28;20308;-81
2021/03/09 08:35:38;;;;;;;2.10;0.80;;;7.20;99.90;;;;;;5065164;28;20196;-80
2021/03/09 08:38:16;;;;;;;3.47;0.80;;;7.30;99.90;;;;;;5064380;28;20248;-78
2021/03/09 08:40:58;;;;;;;4.90;1.43;;;7.30;99.90;;;;;;5065747;28;20213;-79
2021/03/09 08:43:25;;;;;;;4.13;0.60;;;7.30;99.90;;;;;;5054062;28;20667;-82
2021/03/09 08:45:57;;;;;;;5.03;1.30;;;7.30;99.90;;;;;;5063814;28;20493;-79
2021/03/09 08:48:57;;;;;;;4.27;0.80;;;7.30;99.90;;;;;;5064656;28;20233;-80
2021/03/09 08:51:45;;;;;;;3.50;0.90;;;7.40;99.90;;;;;;5039435;28;20230;-79
2021/03/09 08:54:26;;;;;;;1.77;0.50;;;7.50;99.90;;;;;;5040316;28;20213;-79
2021/03/09 08:56:52;;;;;;;2.73;0.80;;;7.50;99.90;;;;;;5062072;28;20525;-80
2021/03/09 08:59:23;;;;;;;4.47;0.80;;;7.50;99.90;;;;;;5065598;28;20235;-80
2021/03/09 09:01:49;;;;;;;0.83;0.50;;;7.50;99.90;;;;;;5065425;28;20201;-79
2021/03/09 09:04:17;;;;;;;1.97;0.60;;;7.60;99.90;;;;;;5065124;28;20680;-80
2021/03/09 09:06:45;;;;;;;3.83;0.67;;;7.60;99.90;;;;;;5063688;28;20263;-81
2021/03/09 09:09:11;;;;;;;2.77;0.60;;;7.60;99.90;;;;;;5066124;28;20201;-81
2021/03/09 09:11:37;;;;;;;3.60;0.60;;;7.60;99.90;;;;;;5066094;28;20208;-79
2021/03/09 09:14:18;;;;;;;4.83;1.03;;;7.60;99.90;;;;;;5065881;28;20209;-81
2021/03/09 09:16:46;;;;;;;3.53;0.80;;;7.50;99.90;;;;;;5074396;28;20564;-83
2021/03/09 09:19:13;;;;;;;1.80;0.50;;;7.40;99.90;;;;;;5087319;28;20361;-79
2021/03/09 09:21:45;;;;;;;0.73;0.50;;;7.30;99.90;;;;;;5086408;28;20240;-80
2021/03/09 09:24:19;;;;;;;3.73;0.60;;;7.30;99.90;;;;;;5066613;28;20208;-81
2021/03/09 09:26:45;;;;;;;3.07;0.70;;;7.30;99.90;;;;;;5065512;28;20197;-80
2021/03/09 09:29:13;;;;;;;2.73;0.63;;;7.30;99.90;;;;;;5065888;28;20208;-81
2021/03/09 09:31:39;;;;;;;1.73;0.70;;;7.40;99.90;;;;;;5065630;28;20788;-80
2021/03/09 09:34:07;;;;;;;1.03;0.63;;;7.50;99.90;;;;;;5066329;28;20616;-81
2021/03/09 09:36:33;;;;;;;3.73;0.80;;;7.60;99.90;;;;;;5073479;28;20630;-81
2021/03/09 09:39:00;;;;;;;1.83;0.80;;;7.70;99.90;;;;;;5086445;28;20231;-79
2021/03/09 09:41:27;;;;;;;1.17;0.80;;;7.70;99.90;;;;;;5085659;28;20438;-80
2021/03/09 09:43:54;;;;;;;1.70;0.50;;;7.80;99.90;;;;;;5085474;28;20624;-81
2021/03/09 09:46:22;;;;;;;2.80;0.60;;;7.80;99.90;;;;;;5086043;28;20196;-83
2021/03/09 09:48:49;;;;;;;4.40;0.70;;;7.90;99.90;;;;;;5074074;28;20259;-80
2021/03/09 09:51:17;;;;;;;3.47;0.77;;;7.90;99.90;;;;;;5065390;28;20575;-79
2021/03/09 09:53:44;;;;;;;3.17;0.97;;;8.00;99.90;;;;;;5064712;28;20202;-79
2021/03/09 09:56:14;;;;;;;2.70;0.80;;;8.00;99.90;;;;;;5065881;28;20202;-82
2021/03/09 09:58:45;;;;;;;1.73;0.73;;;8.00;99.90;;;;;;5085393;28;20224;-81
2021/03/09 10:01:12;;;;;;;4.10;0.80;;;8.00;99.90;;;;;;5085562;28;20627;-82
2021/03/09 10:03:52;;;;;;;2.93;0.77;;;7.90;99.90;;;;;;5087104;28;20491;-81
2021/03/09 10:06:19;;;;;;;2.43;0.90;;;7.90;99.90;;;;;;5065225;28;20690;-79
2021/03/09 10:08:46;;;;;;;1.70;0.50;;;8.00;99.90;;;;;;5064778;28;20197;-79
2021/03/09 10:11:13;;;;;;;1.20;0.93;;;7.90;99.90;;;;;;5066061;28;20217;-81
2021/03/09 10:13:40;;;;;;;0.80;0.50;;;7.80;99.90;;;;;;5066228;28;20556;-82
2021/03/09 10:16:06;;;;;;;5.07;1.00;;;7.80;99.90;;;;;;5065562;28;20229;-80
2021/03/09 10:18:34;;;;;;;3.10;0.70;;;7.80;99.90;;;;;;5064831;28;20225;-81
2021/03/09 10:21:06;;;;;;;1.97;0.80;;;7.90;99.90;;;;;;5074393;28;20244;-82
2021/03/09 10:23:34;;;;;;;3.87;1.07;;;7.80;99.90;;;;;;5085287;28;20211;-81
2021/03/09 10:26:02;;;;;;;6.13;0.80;;;7.80;99.90;;;;;;5086376;28;20192;-80
2021/03/09 10:28:32;;;;;;;3.10;0.70;;;7.90;99.90;;;;;;5077107;28;20489;-81
2021/03/09 10:30:58;;;;;;;3.63;1.00;;;7.90;99.90;;;;;;5065389;28;20216;-82
2021/03/09 10:33:24;;;;;;;3.07;1.03;;;7.90;99.90;;;;;;5082259;28;20205;-81
2021/03/09 10:36:10;;;;;;;3.77;1.00;;;7.80;99.90;;;;;;5084833;28;20196;-81
2021/03/09 10:38:37;;;;;;;3.23;1.13;;;7.90;99.90;;;;;;5085183;28;20301;-80
2021/03/09 10:41:05;;;;;;;2.53;0.73;;;7.90;99.90;;;;;;5082747;28;20617;-82
2021/03/09 10:43:44;;;;;;;2.67;0.77;;;7.90;99.90;;;;;;5062362;28;20216;-82
2021/03/09 10:46:11;;;;;;;4.93;1.00;;;7.80;99.90;;;;;;5061889;28;20203;-82
2021/03/09 10:48:38;;;;;;;2.93;1.00;;;7.80;99.90;;;;;;5061942;28;20204;-82
2021/03/09 10:51:15;;;;;;;4.83;1.60;;;7.80;99.90;;;;;;5081596;28;20495;-83
2021/03/09 10:53:42;;;;;;;5.57;1.90;;;7.70;99.90;;;;;;5085504;28;20250;-82
2021/03/09 10:56:08;;;;;;;6.10;2.20;;;7.80;99.90;;;;;;5088015;28;20205;-83
2021/03/09 10:58:34;;;;;;;8.83;2.50;;;7.70;99.90;;;;;;5086753;28;20960;-83
2021/03/09 11:01:01;;;;;;;5.13;3.23;;;7.70;99.90;;;;;;5086256;28;20196;-82
2021/03/09 11:03:28;;;;;;;12.53;4.30;;;7.70;99.90;;;;;;5066215;28;20613;-81
2021/03/09 11:05:54;;;;;;;9.07;4.10;;;7.70;99.90;;;;;;5067140;28;20202;-82
2021/03/09 11:08:22;;;;;;;11.33;5.83;;;7.70;99.90;;;;;;5066164;28;20209;-82
2021/03/09 11:10:48;;;;;;;12.07;4.40;;;7.80;99.90;;;;;;5066602;28;20594;-82
2021/03/09 11:13:17;;;;;;;7.37;3.70;;;7.80;99.90;;;;;;5066557;28;20205;-81
2021/03/09 11:15:43;;;;;;;7.20;4.57;;;7.80;99.90;;;;;;5066832;28;20220;-82
2021/03/09 11:18:11;;;;;;;8.60;4.83;;;7.80;99.90;;;;;;5066061;28;20228;-82
2021/03/09 11:20:38;;;;;;;6.67;4.10;;;7.90;99.90;;;;;;5066032;28;20313;-80
2021/03/09 11:23:05;;;;;;;12.20;4.47;;;7.90;99.90;;;;;;5066354;28;20241;-82
2021/03/09 11:25:33;;;;;;;6.33;3.73;;;8.00;99.90;;;;;;5066572;28;20288;-81
2021/03/09 11:28:00;;;;;;;6.47;3.90;;;8.00;99.90;;;;;;5066477;28;20890;-82
2021/03/09 11:30:26;;;;;;;6.90;4.43;;;8.00;99.90;;;;;;5066966;28;20197;-81
2021/03/09 11:32:52;;;;;;;8.80;4.27;;;8.00;99.90;;;;;;5066425;28;20209;-82
2021/03/09 11:35:20;;;;;;;12.10;4.53;;;8.00;99.90;;;;;;5066357;28;20262;-82
2021/03/09 11:37:46;;;;;;;6.90;4.20;;;8.00;99.90;;;;;;5063759;28;20840;-81
2021/03/09 11:40:13;;;;;;;9.43;5.10;;;8.10;99.90;;;;;;5065142;28;20221;-81
2021/03/09 11:42:40;;;;;;;10.77;4.60;;;8.20;99.90;;;;;;5065724;28;20201;-81
2021/03/09 11:45:07;;;;;;;11.63;5.30;;;8.10;99.90;;;;;;5065603;28;20601;-80
2021/03/09 11:47:34;;;;;;;8.97;4.87;;;8.20;99.90;;;;;;5064668;28;20209;-82
2021/03/09 11:50:00;;;;;;;9.00;5.33;;;8.10;99.90;;;;;;5065984;28;20239;-81
2021/03/09 11:52:27;;;;;;;11.07;5.57;;;8.20;99.90;;;;;;5064192;28;20205;-81
2021/03/09 11:54:54;;;;;;;10.33;5.30;;;8.20;99.90;;;;;;5065812;28;20220;-81
2021/03/09 11:57:20;;;;;;;12.50;4.77;;;8.20;99.90;;;;;;5065135;28;20212;-82
2021/03/09 11:59:46;;;;;;;14.30;5.73;;;8.20;99.90;;;;;;5066339;28;20220;-82
2021/03/09 12:02:13;;;;;;;10.37;5.53;;;8.30;99.90;;;;;;5066080;28;20201;-81
2021/03/09 12:04:40;;;;;;;9.23;5.30;;;8.20;99.90;;;;;;5064412;28;20576;-81
2021/03/09 12:07:07;;;;;;;13.90;6.37;;;8.20;99.90;;;;;;5064911;28;20515;-81
2021/03/09 12:09:34;;;;;;;11.37;6.30;;;8.20;99.90;;;;;;5064727;28;20197;-82
2021/03/09 12:12:00;;;;;;;10.20;6.30;;;8.10;99.90;;;;;;5066335;28;20206;-81
2021/03/09 12:14:27;;;;;;;15.73;7.70;;;8.20;99.90;;;;;;5064264;28;20212;-81
2021/03/09 12:16:53;;;;;;;13.53;7.67;;;8.20;99.90;;;;;;5066044;28;20847;-82
2021/03/09 12:19:20;;;;;;;14.87;8.80;;;8.20;99.90;;;;;;5063792;28;20274;-82
2021/03/09 12:21:46;;;;;;;15.07;9.07;;;8.20;99.90;;;;;;5065166;28;20703;-82
2021/03/09 12:24:13;;;;;;;18.47;9.97;;;8.30;99.90;;;;;;5065719;28;20212;-81
2021/03/09 12:26:40;;;;;;;18.93;9.43;;;8.30;99.90;;;;;;5068161;28;20217;-81
2021/03/09 12:29:06;;;;;;;22.40;10.73;;;8.40;99.90;;;;;;5068116;28;20209;-81
2021/03/09 12:31:32;;;;;;;17.07;10.67;;;8.40;99.90;;;;;;5067712;28;20217;-81
2021/03/09 12:33:59;;;;;;;17.53;11.27;;;8.40;99.90;;;;;;5066652;28;20205;-81
2021/03/09 12:36:25;;;;;;;21.97;11.40;;;8.40;99.90;;;;;;5066215;28;20201;-80
2021/03/09 12:38:52;;;;;;;19.27;11.83;;;8.40;99.90;;;;;;5067733;28;20232;-81
2021/03/09 12:41:18;;;;;;;15.40;10.97;;;8.40;99.90;;;;;;5066679;28;20216;-80
2021/03/09 12:43:45;;;;;;;20.37;12.07;;;8.30;99.90;;;;;;5065965;28;20605;-81
2021/03/09 12:46:12;;;;;;;19.10;10.77;;;8.40;99.90;;;;;;5066024;28;20197;-81
2021/03/09 12:48:38;;;;;;;17.87;11.03;;;8.40;99.90;;;;;;5066700;28;20221;-80
2021/03/09 12:51:05;;;;;;;21.17;10.73;;;8.40;99.90;;;;;;5066801;28;20205;-81
2021/03/09 12:53:31;;;;;;;17.97;10.23;;;8.30;99.90;;;;;;5065185;28;20597;-81
2021/03/09 12:55:57;;;;;;;16.77;10.00;;;8.30;99.90;;;;;;5066571;28;20522;-80
2021/03/09 12:58:24;;;;;;;14.57;9.20;;;8.30;99.90;;;;;;5065776;28;20228;-81